sensor_id;sensor_type;location;lat;lon;timestamp;pressure;altitude;pressure_sealevel;temperature
45976;BMP280;31696;42.668;23.322;2023-03-23T00:00:54;94655.75;;;8.62
45976;BMP280;31696;42.668;23.322;2023-03-23T00:02:55;94649.03;;;8.59
45976;BMP280;31696;42.668;23.322;2023-03-23T00:04:55;94650.19;;;8.50
45976;BMP280;31696;42.668;23.322;2023-03-23T00:06:55;94647.13;;;8.59
45976;BMP280;31696;42.668;23.322;2023-03-23T00:08:56;94647.44;;;8.48
45976;BMP280;31696;42.668;23.322;2023-03-23T00:10:59;94644.00;;;8.53
45976;BMP280;31696;42.668;23.322;2023-03-23T00:13:01;94645.31;;;8.18
45976;BMP280;31696;42.668;23.322;2023-03-23T00:15:05;94649.63;;;8.16
45976;BMP280;31696;42.668;23.322;2023-03-23T00:17:07;94651.56;;;8.23
45976;BMP280;31696;42.668;23.322;2023-03-23T00:19:10;94645.56;;;8.28
45976;BMP280;31696;42.668;23.322;2023-03-23T00:21:13;94651.94;;;8.27
45976;BMP280;31696;42.668;23.322;2023-03-23T00:23:13;94647.78;;;8.24
45976;BMP280;31696;42.668;23.322;2023-03-23T00:25:18;94646.88;;;8.21
45976;BMP280;31696;42.668;23.322;2023-03-23T00:27:19;94654.66;;;8.21
45976;BMP280;31696;42.668;23.322;2023-03-23T00:29:22;94655.09;;;8.12
45976;BMP280;31696;42.668;23.322;2023-03-23T00:31:25;94655.75;;;8.05
45976;BMP280;31696;42.668;23.322;2023-03-23T00:33:32;94649.22;;;8.12
45976;BMP280;31696;42.668;23.322;2023-03-23T00:35:38;94665.53;;;7.99
45976;BMP280;31696;42.668;23.322;2023-03-23T00:37:39;94660.91;;;8.05
45976;BMP280;31696;42.668;23.322;2023-03-23T00:39:40;94659.69;;;8.27
45976;BMP280;31696;42.668;23.322;2023-03-23T00:41:45;94659.31;;;8.23
45976;BMP280;31696;42.668;23.322;2023-03-23T00:43:46;94665.78;;;8.09
45976;BMP280;31696;42.668;23.322;2023-03-23T00:45:48;94666.34;;;7.94
45976;BMP280;31696;42.668;23.322;2023-03-23T00:47:52;94667.16;;;7.89
45976;BMP280;31696;42.668;23.322;2023-03-23T00:49:53;94674.28;;;7.96
45976;BMP280;31696;42.668;23.322;2023-03-23T00:51:56;94669.47;;;8.00
45976;BMP280;31696;42.668;23.322;2023-03-23T00:53:57;94675.41;;;7.87
45976;BMP280;31696;42.668;23.322;2023-03-23T00:55:58;94674.78;;;7.95
45976;BMP280;31696;42.668;23.322;2023-03-23T00:57:58;94677.38;;;7.95
45976;BMP280;31696;42.668;23.322;2023-03-23T00:59:59;94673.00;;;7.89
45976;BMP280;31696;42.668;23.322;2023-03-23T01:01:59;94676.34;;;7.98
45976;BMP280;31696;42.668;23.322;2023-03-23T01:04:00;94680.16;;;7.97
45976;BMP280;31696;42.668;23.322;2023-03-23T01:06:07;94680.53;;;8.01
45976;BMP280;31696;42.668;23.322;2023-03-23T01:08:08;94678.94;;;7.98
45976;BMP280;31696;42.668;23.322;2023-03-23T01:10:11;94675.22;;;7.85
45976;BMP280;31696;42.668;23.322;2023-03-23T01:12:17;94684.38;;;8.07
45976;BMP280;31696;42.668;23.322;2023-03-23T01:14:19;94682.84;;;8.12
45976;BMP280;31696;42.668;23.322;2023-03-23T01:16:19;94682.66;;;8.10
45976;BMP280;31696;42.668;23.322;2023-03-23T01:18:20;94673.91;;;8.13
45976;BMP280;31696;42.668;23.322;2023-03-23T01:20:20;94676.13;;;8.09
45976;BMP280;31696;42.668;23.322;2023-03-23T01:22:21;94675.84;;;8.20
45976;BMP280;31696;42.668;23.322;2023-03-23T01:24:21;94671.34;;;8.20
45976;BMP280;31696;42.668;23.322;2023-03-23T01:26:23;94675.84;;;8.20
45976;BMP280;31696;42.668;23.322;2023-03-23T01:28:24;94670.81;;;8.14
45976;BMP280;31696;42.668;23.322;2023-03-23T01:30:25;94674.47;;;8.19
45976;BMP280;31696;42.668;23.322;2023-03-23T01:32:26;94675.78;;;8.33
45976;BMP280;31696;42.668;23.322;2023-03-23T01:34:27;94677.22;;;8.41
45976;BMP280;31696;42.668;23.322;2023-03-23T01:36:28;94664.25;;;8.34
45976;BMP280;31696;42.668;23.322;2023-03-23T01:38:34;94659.44;;;8.38
45976;BMP280;31696;42.668;23.322;2023-03-23T01:40:34;94661.09;;;8.28
45976;BMP280;31696;42.668;23.322;2023-03-23T01:42:36;94659.63;;;8.19
45976;BMP280;31696;42.668;23.322;2023-03-23T01:46:41;94660.72;;;8.24
45976;BMP280;31696;42.668;23.322;2023-03-23T01:48:42;94656.63;;;8.28
45976;BMP280;31696;42.668;23.322;2023-03-23T01:50:50;94654.19;;;8.30
45976;BMP280;31696;42.668;23.322;2023-03-23T01:52:52;94653.56;;;8.37
45976;BMP280;31696;42.668;23.322;2023-03-23T01:54:53;94647.63;;;8.29
45976;BMP280;31696;42.668;23.322;2023-03-23T01:59:31;94646.19;;;8.21
45976;BMP280;31696;42.668;23.322;2023-03-23T02:01:48;94644.44;;;8.16
45976;BMP280;31696;42.668;23.322;2023-03-23T02:03:48;94648.97;;;8.23
45976;BMP280;31696;42.668;23.322;2023-03-23T02:05:49;94645.94;;;8.32
45976;BMP280;31696;42.668;23.322;2023-03-23T02:07:58;94641.50;;;8.40
45976;BMP280;31696;42.668;23.322;2023-03-23T02:10:03;94646.94;;;8.29
45976;BMP280;31696;42.668;23.322;2023-03-23T02:12:06;94654.63;;;8.42
45976;BMP280;31696;42.668;23.322;2023-03-23T02:14:08;94641.50;;;8.40
45976;BMP280;31696;42.668;23.322;2023-03-23T02:18:13;94651.22;;;8.47
45976;BMP280;31696;42.668;23.322;2023-03-23T02:31:16;94642.94;;;8.49
45976;BMP280;31696;42.668;23.322;2023-03-23T02:33:35;94645.47;;;8.41
45976;BMP280;31696;42.668;23.322;2023-03-23T02:35:37;94643.94;;;8.46
45976;BMP280;31696;42.668;23.322;2023-03-23T02:37:40;94645.09;;;8.37
45976;BMP280;31696;42.668;23.322;2023-03-23T02:39:47;94648.34;;;8.30
45976;BMP280;31696;42.668;23.322;2023-03-23T02:41:53;94655.66;;;8.18
45976;BMP280;31696;42.668;23.322;2023-03-23T02:43:54;94657.28;;;8.29
45976;BMP280;31696;42.668;23.322;2023-03-23T02:45:56;94651.75;;;8.25
45976;BMP280;31696;42.668;23.322;2023-03-23T02:47:57;94654.53;;;8.27
45976;BMP280;31696;42.668;23.322;2023-03-23T02:49:58;94654.59;;;8.14
45976;BMP280;31696;42.668;23.322;2023-03-23T02:51:59;94658.84;;;8.24
45976;BMP280;31696;42.668;23.322;2023-03-23T02:54:02;94656.34;;;8.19
45976;BMP280;31696;42.668;23.322;2023-03-23T02:56:03;94667.28;;;8.25
45976;BMP280;31696;42.668;23.322;2023-03-23T02:58:06;94660.66;;;8.16
45976;BMP280;31696;42.668;23.322;2023-03-23T03:00:07;94668.53;;;8.11
45976;BMP280;31696;42.668;23.322;2023-03-23T03:02:17;94665.50;;;8.20
45976;BMP280;31696;42.668;23.322;2023-03-23T03:04:19;94664.06;;;8.11
45976;BMP280;31696;42.668;23.322;2023-03-23T03:10:58;94684.56;;;8.09
45976;BMP280;31696;42.668;23.322;2023-03-23T03:13:04;94686.47;;;8.09
45976;BMP280;31696;42.668;23.322;2023-03-23T03:17:12;94700.16;;;7.96
45976;BMP280;31696;42.668;23.322;2023-03-23T03:19:24;94694.63;;;8.00
45976;BMP280;31696;42.668;23.322;2023-03-23T03:21:27;94694.63;;;8.00
45976;BMP280;31696;42.668;23.322;2023-03-23T03:23:30;94692.22;;;7.94
45976;BMP280;31696;42.668;23.322;2023-03-23T03:25:33;94697.66;;;7.90
45976;BMP280;31696;42.668;23.322;2023-03-23T03:27:34;94701.94;;;7.67
45976;BMP280;31696;42.668;23.322;2023-03-23T03:29:45;94700.25;;;8.11
45976;BMP280;31696;42.668;23.322;2023-03-23T03:31:49;94710.56;;;8.04
45976;BMP280;31696;42.668;23.322;2023-03-23T03:33:50;94697.41;;;7.81
45976;BMP280;31696;42.668;23.322;2023-03-23T03:35:53;94691.75;;;7.82
45976;BMP280;31696;42.668;23.322;2023-03-23T03:37:54;94705.66;;;7.79
45976;BMP280;31696;42.668;23.322;2023-03-23T03:39:55;94704.31;;;7.65
45976;BMP280;31696;42.668;23.322;2023-03-23T03:41:56;94698.50;;;7.85
45976;BMP280;31696;42.668;23.322;2023-03-23T03:43:56;94714.19;;;7.87
45976;BMP280;31696;42.668;23.322;2023-03-23T03:45:57;94710.16;;;7.79
45976;BMP280;31696;42.668;23.322;2023-03-23T03:47:57;94707.63;;;7.86
45976;BMP280;31696;42.668;23.322;2023-03-23T03:49:58;94700.78;;;7.89
45976;BMP280;31696;42.668;23.322;2023-03-23T03:51:58;94701.44;;;7.89
45976;BMP280;31696;42.668;23.322;2023-03-23T03:54:09;94701.59;;;7.84
45976;BMP280;31696;42.668;23.322;2023-03-23T03:56:10;94693.50;;;7.87
45976;BMP280;31696;42.668;23.322;2023-03-23T03:58:17;94698.59;;;7.80
45976;BMP280;31696;42.668;23.322;2023-03-23T04:00:59;94695.44;;;7.74
45976;BMP280;31696;42.668;23.322;2023-03-23T04:03:04;94689.97;;;7.77
45976;BMP280;31696;42.668;23.322;2023-03-23T04:05:25;94689.94;;;7.57
45976;BMP280;31696;42.668;23.322;2023-03-23T04:07:25;94686.81;;;7.71
45976;BMP280;31696;42.668;23.322;2023-03-23T04:09:26;94685.38;;;7.63
45976;BMP280;31696;42.668;23.322;2023-03-23T04:11:27;94693.41;;;7.59
45976;BMP280;31696;42.668;23.322;2023-03-23T04:13:37;94681.56;;;7.64
45976;BMP280;31696;42.668;23.322;2023-03-23T04:15:49;94688.00;;;7.36
45976;BMP280;31696;42.668;23.322;2023-03-23T04:17:50;94686.91;;;7.66
45976;BMP280;31696;42.668;23.322;2023-03-23T04:19:51;94686.88;;;7.58
45976;BMP280;31696;42.668;23.322;2023-03-23T04:21:51;94692.19;;;7.73
45976;BMP280;31696;42.668;23.322;2023-03-23T04:23:52;94693.13;;;7.63
45976;BMP280;31696;42.668;23.322;2023-03-23T04:25:53;94691.50;;;7.60
45976;BMP280;31696;42.668;23.322;2023-03-23T04:28:00;94691.22;;;7.63
45976;BMP280;31696;42.668;23.322;2023-03-23T04:30:07;94691.97;;;7.71
45976;BMP280;31696;42.668;23.322;2023-03-23T04:32:22;94690.47;;;7.76
45976;BMP280;31696;42.668;23.322;2023-03-23T04:34:27;94690.97;;;7.74
45976;BMP280;31696;42.668;23.322;2023-03-23T04:36:28;94690.41;;;7.68
45976;BMP280;31696;42.668;23.322;2023-03-23T04:38:36;94693.00;;;7.68
45976;BMP280;31696;42.668;23.322;2023-03-23T04:40:44;94703.66;;;7.85
45976;BMP280;31696;42.668;23.322;2023-03-23T04:42:53;94700.91;;;7.83
45976;BMP280;31696;42.668;23.322;2023-03-23T04:45:08;94698.91;;;7.76
45976;BMP280;31696;42.668;23.322;2023-03-23T04:47:11;94703.50;;;7.83
45976;BMP280;31696;42.668;23.322;2023-03-23T04:49:19;94693.91;;;7.91
45976;BMP280;31696;42.668;23.322;2023-03-23T04:51:28;94705.78;;;7.74
45976;BMP280;31696;42.668;23.322;2023-03-23T04:53:29;94695.91;;;7.85
45976;BMP280;31696;42.668;23.322;2023-03-23T04:55:30;94706.53;;;7.61
45976;BMP280;31696;42.668;23.322;2023-03-23T04:57:32;94718.06;;;7.60
45976;BMP280;31696;42.668;23.322;2023-03-23T04:59:51;94716.22;;;7.81
45976;BMP280;31696;42.668;23.322;2023-03-23T05:02:05;94713.78;;;7.97
45976;BMP280;31696;42.668;23.322;2023-03-23T05:04:06;94718.75;;;7.95
45976;BMP280;31696;42.668;23.322;2023-03-23T05:06:08;94710.75;;;8.06
45976;BMP280;31696;42.668;23.322;2023-03-23T05:08:09;94719.75;;;7.91
45976;BMP280;31696;42.668;23.322;2023-03-23T05:10:14;94708.69;;;8.04
45976;BMP280;31696;42.668;23.322;2023-03-23T05:12:16;94727.75;;;8.01
45976;BMP280;31696;42.668;23.322;2023-03-23T05:14:27;94718.19;;;8.09
45976;BMP280;31696;42.668;23.322;2023-03-23T05:16:36;94724.69;;;8.03
45976;BMP280;31696;42.668;23.322;2023-03-23T05:18:37;94722.03;;;8.16
45976;BMP280;31696;42.668;23.322;2023-03-23T05:20:41;94724.81;;;8.18
45976;BMP280;31696;42.668;23.322;2023-03-23T05:22:48;94732.94;;;8.01
45976;BMP280;31696;42.668;23.322;2023-03-23T05:24:51;94727.84;;;8.29
45976;BMP280;31696;42.668;23.322;2023-03-23T05:26:52;94730.44;;;8.29
45976;BMP280;31696;42.668;23.322;2023-03-23T05:28:58;94717.66;;;8.31
45976;BMP280;31696;42.668;23.322;2023-03-23T05:31:10;94730.13;;;8.33
45976;BMP280;31696;42.668;23.322;2023-03-23T05:33:11;94744.47;;;8.41
45976;BMP280;31696;42.668;23.322;2023-03-23T05:35:20;94742.81;;;8.44
45976;BMP280;31696;42.668;23.322;2023-03-23T05:37:25;94745.38;;;8.44
45976;BMP280;31696;42.668;23.322;2023-03-23T05:39:32;94741.88;;;8.62
45976;BMP280;31696;42.668;23.322;2023-03-23T05:41:59;94739.13;;;8.60
45976;BMP280;31696;42.668;23.322;2023-03-23T05:44:06;94743.38;;;8.78
45976;BMP280;31696;42.668;23.322;2023-03-23T05:46:20;94747.88;;;8.78
45976;BMP280;31696;42.668;23.322;2023-03-23T05:48:22;94752.19;;;8.75
45976;BMP280;31696;42.668;23.322;2023-03-23T05:50:22;94752.91;;;8.83
45976;BMP280;31696;42.668;23.322;2023-03-23T05:52:23;94745.69;;;8.89
45976;BMP280;31696;42.668;23.322;2023-03-23T05:54:27;94758.97;;;8.86
45976;BMP280;31696;42.668;23.322;2023-03-23T05:56:28;94760.34;;;8.87
45976;BMP280;31696;42.668;23.322;2023-03-23T05:58:50;94745.28;;;9.06
45976;BMP280;31696;42.668;23.322;2023-03-23T06:00:51;94756.00;;;9.10
45976;BMP280;31696;42.668;23.322;2023-03-23T06:02:57;94758.59;;;9.18
45976;BMP280;31696;42.668;23.322;2023-03-23T06:05:10;94763.09;;;9.17
45976;BMP280;31696;42.668;23.322;2023-03-23T06:07:13;94757.22;;;9.17
45976;BMP280;31696;42.668;23.322;2023-03-23T06:09:20;94765.75;;;9.25
45976;BMP280;31696;42.668;23.322;2023-03-23T06:11:44;94772.22;;;9.11
45976;BMP280;31696;42.668;23.322;2023-03-23T06:14:03;94771.25;;;9.65
45976;BMP280;31696;42.668;23.322;2023-03-23T06:16:04;94762.72;;;10.23
45976;BMP280;31696;42.668;23.322;2023-03-23T06:18:22;94769.13;;;10.60
45976;BMP280;31696;42.668;23.322;2023-03-23T06:20:43;94764.44;;;10.50
45976;BMP280;31696;42.668;23.322;2023-03-23T06:22:59;94759.44;;;10.30
45976;BMP280;31696;42.668;23.322;2023-03-23T06:25:04;94770.16;;;10.11
45976;BMP280;31696;42.668;23.322;2023-03-23T06:27:11;94766.16;;;10.25
45976;BMP280;31696;42.668;23.322;2023-03-23T06:29:14;94764.72;;;9.71
45976;BMP280;31696;42.668;23.322;2023-03-23T06:31:19;94768.75;;;10.10
45976;BMP280;31696;42.668;23.322;2023-03-23T06:33:22;94771.38;;;10.48
45976;BMP280;31696;42.668;23.322;2023-03-23T06:35:54;94767.19;;;9.92
45976;BMP280;31696;42.668;23.322;2023-03-23T06:38:13;94772.06;;;10.26
45976;BMP280;31696;42.668;23.322;2023-03-23T06:40:28;94765.47;;;10.25
45976;BMP280;31696;42.668;23.322;2023-03-23T06:42:30;94765.31;;;10.68
45976;BMP280;31696;42.668;23.322;2023-03-23T06:44:49;94771.38;;;11.41
45976;BMP280;31696;42.668;23.322;2023-03-23T06:46:50;94773.97;;;11.41
45976;BMP280;31696;42.668;23.322;2023-03-23T06:48:54;94764.19;;;11.49
45976;BMP280;31696;42.668;23.322;2023-03-23T06:51:03;94773.19;;;11.88
45976;BMP280;31696;42.668;23.322;2023-03-23T06:53:04;94768.16;;;11.90
45976;BMP280;31696;42.668;23.322;2023-03-23T06:55:05;94789.19;;;12.09
45976;BMP280;31696;42.668;23.322;2023-03-23T06:57:07;94776.63;;;11.98
45976;BMP280;31696;42.668;23.322;2023-03-23T06:59:08;94778.84;;;11.69
45976;BMP280;31696;42.668;23.322;2023-03-23T07:01:10;94773.41;;;12.73
45976;BMP280;31696;42.668;23.322;2023-03-23T07:03:15;94780.22;;;12.02
45976;BMP280;31696;42.668;23.322;2023-03-23T07:05:15;94784.81;;;12.36
45976;BMP280;31696;42.668;23.322;2023-03-23T07:07:16;94780.53;;;12.90
45976;BMP280;31696;42.668;23.322;2023-03-23T07:09:41;94784.50;;;12.91
45976;BMP280;31696;42.668;23.322;2023-03-23T07:11:42;94784.25;;;14.30
45976;BMP280;31696;42.668;23.322;2023-03-23T07:13:53;94786.59;;;15.22
45976;BMP280;31696;42.668;23.322;2023-03-23T07:15:54;94778.94;;;15.15
45976;BMP280;31696;42.668;23.322;2023-03-23T07:17:55;94790.31;;;13.87
45976;BMP280;31696;42.668;23.322;2023-03-23T07:20:10;94783.47;;;15.14
45976;BMP280;31696;42.668;23.322;2023-03-23T07:22:12;94783.94;;;15.91
45976;BMP280;31696;42.668;23.322;2023-03-23T07:24:14;94778.34;;;15.76
45976;BMP280;31696;42.668;23.322;2023-03-23T07:26:31;94777.84;;;16.41
45976;BMP280;31696;42.668;23.322;2023-03-23T07:28:32;94783.91;;;17.30
45976;BMP280;31696;42.668;23.322;2023-03-23T07:30:40;94781.16;;;16.20
45976;BMP280;31696;42.668;23.322;2023-03-23T07:32:42;94790.81;;;15.96
45976;BMP280;31696;42.668;23.322;2023-03-23T07:34:43;94792.03;;;16.47
45976;BMP280;31696;42.668;23.322;2023-03-23T07:37:07;94783.53;;;17.47
45976;BMP280;31696;42.668;23.322;2023-03-23T07:39:09;94784.03;;;16.66
45976;BMP280;31696;42.668;23.322;2023-03-23T07:41:10;94783.66;;;18.69
45976;BMP280;31696;42.668;23.322;2023-03-23T07:43:14;94792.13;;;17.59
45976;BMP280;31696;42.668;23.322;2023-03-23T07:45:41;94788.53;;;18.24
45976;BMP280;31696;42.668;23.322;2023-03-23T07:47:41;94795.16;;;18.62
45976;BMP280;31696;42.668;23.322;2023-03-23T07:49:42;94787.25;;;19.12
45976;BMP280;31696;42.668;23.322;2023-03-23T07:52:02;94793.47;;;19.85
45976;BMP280;31696;42.668;23.322;2023-03-23T07:54:04;94789.44;;;18.90
45976;BMP280;31696;42.668;23.322;2023-03-23T07:56:23;94800.41;;;19.12
45976;BMP280;31696;42.668;23.322;2023-03-23T07:58:33;94792.50;;;19.64
45976;BMP280;31696;42.668;23.322;2023-03-23T08:00:33;94796.03;;;18.91
45976;BMP280;31696;42.668;23.322;2023-03-23T08:02:36;94798.81;;;18.93
45976;BMP280;31696;42.668;23.322;2023-03-23T08:04:55;94787.66;;;19.20
45976;BMP280;31696;42.668;23.322;2023-03-23T08:07:16;94791.88;;;18.75
45976;BMP280;31696;42.668;23.322;2023-03-23T08:09:29;94791.91;;;19.52
45976;BMP280;31696;42.668;23.322;2023-03-23T08:11:50;94805.34;;;19.86
45976;BMP280;31696;42.668;23.322;2023-03-23T08:14:24;94798.59;;;19.42
45976;BMP280;31696;42.668;23.322;2023-03-23T08:16:54;94812.44;;;17.58
45976;BMP280;31696;42.668;23.322;2023-03-23T08:19:17;94807.81;;;19.54
45976;BMP280;31696;42.668;23.322;2023-03-23T08:21:24;94803.59;;;20.04
45976;BMP280;31696;42.668;23.322;2023-03-23T08:23:50;94805.19;;;19.95
45976;BMP280;31696;42.668;23.322;2023-03-23T08:26:06;94801.78;;;20.22
45976;BMP280;31696;42.668;23.322;2023-03-23T08:28:39;94803.28;;;20.54
45976;BMP280;31696;42.668;23.322;2023-03-23T08:31:00;94793.06;;;20.47
45976;BMP280;31696;42.668;23.322;2023-03-23T08:33:16;94793.81;;;20.20
45976;BMP280;31696;42.668;23.322;2023-03-23T08:35:58;94803.03;;;19.92
45976;BMP280;31696;42.668;23.322;2023-03-23T08:38:19;94785.56;;;20.86
45976;BMP280;31696;42.668;23.322;2023-03-23T08:40:48;94792.81;;;20.85
45976;BMP280;31696;42.668;23.322;2023-03-23T08:43:10;94792.28;;;20.44
45976;BMP280;31696;42.668;23.322;2023-03-23T08:45:29;94792.91;;;20.58
45976;BMP280;31696;42.668;23.322;2023-03-23T08:48:07;94792.63;;;20.23
45976;BMP280;31696;42.668;23.322;2023-03-23T08:50:27;94783.91;;;18.73
45976;BMP280;31696;42.668;23.322;2023-03-23T08:52:34;94781.31;;;19.25
45976;BMP280;31696;42.668;23.322;2023-03-23T08:55:13;94785.91;;;20.20
45976;BMP280;31696;42.668;23.322;2023-03-23T08:57:28;94784.06;;;18.88
45976;BMP280;31696;42.668;23.322;2023-03-23T08:59:52;94777.84;;;19.34
45976;BMP280;31696;42.668;23.322;2023-03-23T09:02:35;94782.41;;;20.74
45976;BMP280;31696;42.668;23.322;2023-03-23T09:04:47;94783.63;;;20.28
45976;BMP280;31696;42.668;23.322;2023-03-23T09:07:21;94788.88;;;19.58
45976;BMP280;31696;42.668;23.322;2023-03-23T09:09:21;94789.06;;;18.22
45976;BMP280;31696;42.668;23.322;2023-03-23T09:11:22;94790.47;;;17.19
45976;BMP280;31696;42.668;23.322;2023-03-23T09:13:22;94792.69;;;17.57
45976;BMP280;31696;42.668;23.322;2023-03-23T09:15:23;94789.97;;;18.64
45976;BMP280;31696;42.668;23.322;2023-03-23T09:17:23;94789.13;;;17.99
45976;BMP280;31696;42.668;23.322;2023-03-23T09:19:24;94782.97;;;17.95
45976;BMP280;31696;42.668;23.322;2023-03-23T09:21:25;94788.91;;;16.18
45976;BMP280;31696;42.668;23.322;2023-03-23T09:23:26;94784.16;;;16.26
45976;BMP280;31696;42.668;23.322;2023-03-23T09:25:26;94787.78;;;16.21
45976;BMP280;31696;42.668;23.322;2023-03-23T09:27:27;94788.47;;;15.60
45976;BMP280;31696;42.668;23.322;2023-03-23T09:29:28;94789.41;;;15.64
45976;BMP280;31696;42.668;23.322;2023-03-23T09:31:29;94779.78;;;16.61
45976;BMP280;31696;42.668;23.322;2023-03-23T09:33:31;94775.69;;;16.58
45976;BMP280;31696;42.668;23.322;2023-03-23T09:35:35;94779.28;;;17.19
45976;BMP280;31696;42.668;23.322;2023-03-23T09:37:39;94766.50;;;17.13
45976;BMP280;31696;42.668;23.322;2023-03-23T09:39:39;94773.13;;;16.49
45976;BMP280;31696;42.668;23.322;2023-03-23T09:44:17;94772.06;;;15.59
45976;BMP280;31696;42.668;23.322;2023-03-23T09:46:27;94763.72;;;16.03
45976;BMP280;31696;42.668;23.322;2023-03-23T09:50:40;94767.47;;;17.29
45976;BMP280;31696;42.668;23.322;2023-03-23T09:52:46;94770.31;;;16.35
45976;BMP280;31696;42.668;23.322;2023-03-23T09:54:51;94757.34;;;16.37
45976;BMP280;31696;42.668;23.322;2023-03-23T09:56:52;94763.97;;;16.38
45976;BMP280;31696;42.668;23.322;2023-03-23T09:58:55;94758.19;;;16.72
45976;BMP280;31696;42.668;23.322;2023-03-23T10:03:10;94756.97;;;17.29
45976;BMP280;31696;42.668;23.322;2023-03-23T10:05:20;94758.50;;;16.67
45976;BMP280;31696;42.668;23.322;2023-03-23T10:07:24;94763.38;;;15.66
45976;BMP280;31696;42.668;23.322;2023-03-23T10:09:25;94756.34;;;15.09
45976;BMP280;31696;42.668;23.322;2023-03-23T10:11:40;94757.16;;;16.02
45976;BMP280;31696;42.668;23.322;2023-03-23T10:15:43;94753.00;;;16.95
45976;BMP280;31696;42.668;23.322;2023-03-23T10:17:45;94754.78;;;16.81
45976;BMP280;31696;42.668;23.322;2023-03-23T10:21:52;94746.59;;;15.91
45976;BMP280;31696;42.668;23.322;2023-03-23T10:23:59;94742.34;;;16.49
45976;BMP280;31696;42.668;23.322;2023-03-23T10:26:17;94746.69;;;15.71
45976;BMP280;31696;42.668;23.322;2023-03-23T10:28:33;94743.41;;;15.61
45976;BMP280;31696;42.668;23.322;2023-03-23T10:30:36;94751.44;;;15.85
45976;BMP280;31696;42.668;23.322;2023-03-23T10:34:57;94740.38;;;15.25
45976;BMP280;31696;42.668;23.322;2023-03-23T10:39:05;94753.53;;;15.36
45976;BMP280;31696;42.668;23.322;2023-03-23T10:41:14;94749.56;;;15.35
45976;BMP280;31696;42.668;23.322;2023-03-23T10:43:16;94743.47;;;15.42
45976;BMP280;31696;42.668;23.322;2023-03-23T10:45:19;94740.22;;;15.94
45976;BMP280;31696;42.668;23.322;2023-03-23T10:47:20;94739.72;;;15.86
45976;BMP280;31696;42.668;23.322;2023-03-23T10:49:22;94736.22;;;15.71
45976;BMP280;31696;42.668;23.322;2023-03-23T10:51:25;94728.97;;;15.20
45976;BMP280;31696;42.668;23.322;2023-03-23T10:53:37;94733.47;;;15.69
45976;BMP280;31696;42.668;23.322;2023-03-23T10:55:39;94723.38;;;15.76
45976;BMP280;31696;42.668;23.322;2023-03-23T10:57:41;94739.00;;;15.24
45976;BMP280;31696;42.668;23.322;2023-03-23T10:59:41;94738.69;;;15.29
45976;BMP280;31696;42.668;23.322;2023-03-23T11:01:43;94737.06;;;15.64
45976;BMP280;31696;42.668;23.322;2023-03-23T11:03:45;94731.88;;;14.95
45976;BMP280;31696;42.668;23.322;2023-03-23T11:05:59;94735.16;;;15.25
45976;BMP280;31696;42.668;23.322;2023-03-23T11:08:00;94734.59;;;15.66
45976;BMP280;31696;42.668;23.322;2023-03-23T11:10:07;94723.84;;;15.22
45976;BMP280;31696;42.668;23.322;2023-03-23T11:12:16;94727.44;;;15.57
45976;BMP280;31696;42.668;23.322;2023-03-23T11:14:24;94720.53;;;16.14
45976;BMP280;31696;42.668;23.322;2023-03-23T11:16:25;94725.31;;;14.56
45976;BMP280;31696;42.668;23.322;2023-03-23T11:18:34;94708.06;;;15.01
45976;BMP280;31696;42.668;23.322;2023-03-23T11:20:36;94707.78;;;15.47
45976;BMP280;31696;42.668;23.322;2023-03-23T11:22:37;94707.03;;;15.35
45976;BMP280;31696;42.668;23.322;2023-03-23T11:24:41;94712.59;;;15.00
45976;BMP280;31696;42.668;23.322;2023-03-23T11:26:43;94706.59;;;15.69
45976;BMP280;31696;42.668;23.322;2023-03-23T11:31:01;94696.84;;;14.50
45976;BMP280;31696;42.668;23.322;2023-03-23T11:33:02;94687.06;;;14.61
45976;BMP280;31696;42.668;23.322;2023-03-23T11:35:03;94694.06;;;15.37
45976;BMP280;31696;42.668;23.322;2023-03-23T11:37:07;94689.19;;;15.12
45976;BMP280;31696;42.668;23.322;2023-03-23T11:40:15;94699.38;;;15.48
45976;BMP280;31696;42.668;23.322;2023-03-23T11:41:38;94686.16;;;15.06
45976;BMP280;31696;42.668;23.322;2023-03-23T11:43:40;94684.34;;;15.58
45976;BMP280;31696;42.668;23.322;2023-03-23T11:45:47;94686.25;;;15.58
45976;BMP280;31696;42.668;23.322;2023-03-23T11:52:01;94672.25;;;15.44
45976;BMP280;31696;42.668;23.322;2023-03-23T11:58:13;94686.09;;;15.35
45976;BMP280;31696;42.668;23.322;2023-03-23T12:00:15;94671.78;;;15.36
45976;BMP280;31696;42.668;23.322;2023-03-23T12:08:47;94669.25;;;15.68
45976;BMP280;31696;42.668;23.322;2023-03-23T12:11:02;94667.66;;;15.63
45976;BMP280;31696;42.668;23.322;2023-03-23T12:13:13;94670.03;;;15.81
45976;BMP280;31696;42.668;23.322;2023-03-23T12:21:55;94661.44;;;15.90
45976;BMP280;31696;42.668;23.322;2023-03-23T12:24:20;94657.56;;;15.91
45976;BMP280;31696;42.668;23.322;2023-03-23T12:30:42;94651.41;;;16.07
45976;BMP280;31696;42.668;23.322;2023-03-23T12:32:59;94641.34;;;15.83
45976;BMP280;31696;42.668;23.322;2023-03-23T12:35:17;94646.94;;;15.89
45976;BMP280;31696;42.668;23.322;2023-03-23T12:47:48;94644.03;;;15.73
45976;BMP280;31696;42.668;23.322;2023-03-23T12:49:53;94639.78;;;15.37
45976;BMP280;31696;42.668;23.322;2023-03-23T12:51:57;94640.63;;;15.09
45976;BMP280;31696;42.668;23.322;2023-03-23T12:54:16;94643.34;;;15.51
45976;BMP280;31696;42.668;23.322;2023-03-23T12:58:24;94639.56;;;15.54
45976;BMP280;31696;42.668;23.322;2023-03-23T13:02:56;94630.97;;;15.42
45976;BMP280;31696;42.668;23.322;2023-03-23T13:07:05;94640.94;;;15.34
45976;BMP280;31696;42.668;23.322;2023-03-23T13:09:13;94628.31;;;15.73
45976;BMP280;31696;42.668;23.322;2023-03-23T13:11:25;94624.75;;;15.47
45976;BMP280;31696;42.668;23.322;2023-03-23T13:13:40;94631.78;;;15.14
45976;BMP280;31696;42.668;23.322;2023-03-23T13:15:48;94625.66;;;15.61
45976;BMP280;31696;42.668;23.322;2023-03-23T13:17:54;94622.75;;;16.00
45976;BMP280;31696;42.668;23.322;2023-03-23T13:20:13;94622.91;;;16.13
45976;BMP280;31696;42.668;23.322;2023-03-23T13:22:27;94616.28;;;16.01
45976;BMP280;31696;42.668;23.322;2023-03-23T13:24:29;94616.16;;;15.99
45976;BMP280;31696;42.668;23.322;2023-03-23T13:26:31;94615.78;;;15.93
45976;BMP280;31696;42.668;23.322;2023-03-23T13:30:53;94605.78;;;15.37